Time;durP1;ratioP1;P1;durP2;ratioP2;P2;SDS_P1;SDS_P2;PMS_P1;PMS_P2;Temp;Humidity;BMP_temperature;BMP_pressure;BME280_temperature;BME280_humidity;BME280_pressure;Samples;Min_cycle;Max_cycle;Signal;HPM_P1;HPM_P2
2023/06/26 00:08:39;;;;;;;9.90;6.93;;;15.10;99.90;;;;;;1843653;76;27014;-90
2023/06/26 00:31:35;;;;;;;13.60;8.47;;;14.70;99.90;;;;;;1985837;71;26808;-92
2023/06/26 00:34:25;;;;;;;11.57;7.70;;;14.80;99.90;;;;;;1951995;72;25218;-91
2023/06/26 01:08:09;;;;;;;18.03;8.07;;;14.30;99.90;;;;;;1938789;72;27150;-90
2023/06/26 01:10:57;;;;;;;14.47;8.70;;;14.40;99.90;;;;;;1893581;75;25248;-90
2023/06/26 01:13:46;;;;;;;12.80;7.97;;;14.30;99.90;;;;;;1898561;75;25777;-89
2023/06/26 01:19:49;;;;;;;10.90;7.87;;;14.10;99.90;;;;;;1944739;72;27097;-90
2023/06/26 01:54:31;;;;;;;16.77;8.67;;;14.20;99.90;;;;;;1921408;72;26802;-90
2023/06/26 02:00:38;;;;;;;13.73;8.63;;;14.20;99.90;;;;;;1956750;71;27101;-91
2023/06/26 02:03:27;;;;;;;11.83;8.30;;;14.20;99.90;;;;;;1994049;72;25473;-91
2023/06/26 02:06:20;;;;;;;16.17;8.60;;;14.00;99.90;;;;;;1977680;70;25831;-91
2023/06/26 02:09:09;;;;;;;12.93;8.57;;;13.80;99.90;;;;;;1984167;72;25192;-91
2023/06/26 02:11:59;;;;;;;12.23;8.00;;;13.80;99.90;;;;;;1985673;72;25216;-91
2023/06/26 02:14:49;;;;;;;13.27;8.53;;;13.80;99.90;;;;;;1976547;72;25212;-91
2023/06/26 02:17:38;;;;;;;12.53;8.63;;;13.90;99.90;;;;;;1989123;72;25678;-91
2023/06/26 02:20:28;;;;;;;20.13;9.63;;;13.80;99.90;;;;;;1979304;72;25315;-91
2023/06/26 02:23:17;;;;;;;13.63;9.80;;;13.80;99.90;;;;;;1982694;72;25197;-91
2023/06/26 02:40:04;;;;;;;15.50;9.33;;;13.90;99.90;;;;;;1924869;73;26350;-89
2023/06/26 03:01:12;;;;;;;16.37;10.47;;;14.30;99.90;;;;;;1953676;72;26328;-90
2023/06/26 03:04:01;;;;;;;17.30;10.73;;;14.40;99.90;;;;;;2004531;70;25246;-91
2023/06/26 03:06:50;;;;;;;16.63;10.60;;;14.50;99.90;;;;;;2014967;70;25223;-90
2023/06/26 03:09:38;;;;;;;18.57;10.30;;;14.50;99.90;;;;;;2049426;70;25585;-90
2023/06/26 03:12:27;;;;;;;15.87;10.23;;;14.60;99.90;;;;;;2033105;69;25271;-90
2023/06/26 03:15:19;;;;;;;18.73;9.77;;;14.70;99.90;;;;;;2023892;69;25243;-90
2023/06/26 03:18:09;;;;;;;14.67;9.40;;;14.90;99.90;;;;;;2035845;70;25622;-91
2023/06/26 03:20:59;;;;;;;13.03;8.73;;;15.00;99.90;;;;;;1949693;72;25249;-91
2023/06/26 03:23:49;;;;;;;13.20;9.27;;;15.10;99.90;;;;;;1983725;71;25229;-91
2023/06/26 03:26:38;;;;;;;13.60;7.90;;;15.40;99.90;;;;;;1980638;71;25674;-91
2023/06/26 03:29:29;;;;;;;12.40;8.20;;;16.00;99.90;;;;;;1962741;73;25146;-91
2023/06/26 03:32:18;;;;;;;12.10;7.90;;;16.50;99.90;;;;;;1964646;71;25171;-91
2023/06/26 03:35:10;;;;;;;11.47;7.70;;;16.90;99.90;;;;;;1956932;72;25303;-92
2023/06/26 03:43:51;;;;;;;13.37;7.10;;;17.80;99.90;;;;;;1988385;71;26753;-91
2023/06/26 03:52:34;;;;;;;8.83;6.97;;;19.10;99.90;;;;;;1922381;74;27296;-90
2023/06/26 03:55:24;;;;;;;8.30;6.43;;;19.90;99.90;;;;;;1896549;74;25309;-90
2023/06/26 03:58:14;;;;;;;10.90;5.97;;;20.20;99.90;;;;;;1999307;70;25704;-90
2023/06/26 04:01:02;;;;;;;8.63;6.67;;;20.40;99.90;;;;;;2005203;70;25284;-90
2023/06/26 04:03:50;;;;;;;12.10;6.43;;;20.50;99.90;;;;;;1986104;71;25857;-90
2023/06/26 04:06:40;;;;;;;9.73;6.43;;;20.90;99.90;;;;;;1991370;71;25715;-90
2023/06/26 04:09:28;;;;;;;7.90;6.00;;;21.40;99.90;;;;;;1982428;71;25157;-90
2023/06/26 04:12:30;;;;;;;7.00;5.97;;;21.90;99.90;;;;;;1998087;71;25222;-90
2023/06/26 04:15:18;;;;;;;6.53;5.53;;;22.10;99.90;;;;;;1991058;71;25741;-90
2023/06/26 04:18:07;;;;;;;8.93;6.00;;;22.20;99.90;;;;;;1981409;71;25224;-90
2023/06/26 04:21:11;;;;;;;8.10;6.20;;;22.60;99.90;;;;;;1986258;71;25238;-91
2023/06/26 04:24:00;;;;;;;11.50;6.20;;;22.60;99.90;;;;;;1951885;71;25276;-90
2023/06/26 04:26:51;;;;;;;8.27;6.10;;;22.90;99.90;;;;;;1990059;71;25153;-91
2023/06/26 04:29:39;;;;;;;7.87;5.83;;;23.10;99.90;;;;;;1985756;71;25254;-90
2023/06/26 05:15:44;;;;;;;5.70;4.60;;;25.10;99.90;;;;;;1942158;72;27104;-90
2023/06/26 05:18:33;;;;;;;7.67;4.40;;;24.90;99.90;;;;;;1938997;73;25254;-90
2023/06/26 05:21:23;;;;;;;6.43;4.40;;;25.20;99.90;;;;;;1918575;73;26327;-90
2023/06/26 05:24:14;;;;;;;5.97;4.80;;;24.60;99.90;;;;;;1933151;73;25313;-90
2023/06/26 05:27:04;;;;;;;6.03;4.60;;;23.70;99.90;;;;;;1925426;73;25349;-90
2023/06/26 05:29:54;;;;;;;6.13;4.80;;;24.30;99.90;;;;;;1930690;73;25654;-90
2023/06/26 05:32:46;;;;;;;7.23;4.27;;;24.80;99.90;;;;;;1924213;73;25257;-90
2023/06/26 05:38:31;;;;;;;8.03;4.10;;;25.60;99.90;;;;;;1947458;72;28338;-90
2023/06/26 05:41:21;;;;;;;4.27;3.87;;;26.30;99.90;;;;;;1938921;73;26270;-91
2023/06/26 06:52:43;;;;;;;4.97;2.93;;;24.30;99.90;;;;;;1958876;73;25351;-93
2023/06/26 07:15:36;;;;;;;2.97;2.67;;;25.20;99.90;;;;;;1943585;73;27588;-93
2023/06/26 08:22:31;;;;;;;3.93;3.60;;;25.30;99.90;;;;;;1918716;72;27417;-90
2023/06/26 09:11:25;;;;;;;4.93;4.43;;;27.60;99.90;;;;;;1846631;73;26430;-90
2023/06/26 10:55:48;;;;;;;5.95;4.33;;;27.80;99.90;;;;;;1904916;73;25257;-90
2023/06/26 10:59:08;;;;;;;4.55;3.62;;;27.70;99.90;;;;;;1916845;73;26284;-92
2023/06/26 11:02:06;;;;;;;6.67;4.03;;;28.10;99.90;;;;;;1898447;74;26338;-93
2023/06/26 13:15:05;;;;;;;3.58;3.27;;;28.80;99.90;;;;;;1830196;76;25783;-92
2023/06/26 13:48:40;;;;;;;5.20;3.33;;;29.10;99.90;;;;;;1928935;72;28165;-90
2023/06/26 14:21:15;;;;;;;3.58;3.25;;;28.30;99.90;;;;;;1947872;72;28804;-90
2023/06/26 14:24:05;;;;;;;5.47;3.37;;;28.50;99.90;;;;;;1938833;73;26205;-90
2023/06/26 15:25:56;;;;;;;4.95;3.20;;;28.60;99.90;;;;;;1835188;76;27136;-90
2023/06/26 15:28:49;;;;;;;4.03;3.62;;;27.90;99.90;;;;;;1788969;79;26436;-90
2023/06/26 15:31:40;;;;;;;3.67;3.37;;;27.80;99.90;;;;;;1812021;79;25287;-90
2023/06/26 15:34:29;;;;;;;5.37;3.27;;;27.80;99.90;;;;;;1816353;78;26320;-90
2023/06/26 15:37:18;;;;;;;5.10;3.52;;;27.80;99.90;;;;;;1793984;79;25730;-90
2023/06/26 15:40:19;;;;;;;7.45;3.52;;;27.80;99.90;;;;;;1819407;78;25269;-90
2023/06/26 15:46:30;;;;;;;4.00;3.55;;;27.70;99.90;;;;;;1962363;71;26285;-90
2023/06/26 16:04:26;;;;;;;4.45;3.15;;;27.90;99.90;;;;;;2022948;69;32612;-95
2023/06/26 16:23:41;;;;;;;4.00;3.42;;;27.60;99.90;;;;;;1909400;73;26630;-89
2023/06/26 16:29:36;;;;;;;4.55;3.40;;;27.70;99.90;;;;;;1928991;72;28065;-89
2023/06/26 16:32:24;;;;;;;3.83;2.98;;;27.80;99.90;;;;;;1899487;73;26225;-89
2023/06/26 16:35:13;;;;;;;4.75;3.25;;;27.80;99.90;;;;;;1910511;73;26300;-86
2023/06/26 16:38:02;;;;;;;6.92;3.25;;;27.70;99.90;;;;;;1907463;74;26351;-89
2023/06/26 16:40:50;;;;;;;7.05;3.58;;;27.60;99.90;;;;;;1911663;74;26439;-87
2023/06/26 16:43:39;;;;;;;4.45;3.22;;;27.50;99.90;;;;;;1906621;75;26278;-88
2023/06/26 16:49:17;;;;;;;3.33;3.02;;;27.30;99.90;;;;;;1942242;72;27594;-88
2023/06/26 16:54:48;;;;;;;4.00;3.05;;;27.00;99.90;;;;;;1933726;72;28046;-87
2023/06/26 17:00:18;;;;;;;4.83;2.77;;;26.60;99.90;;;;;;1946668;72;29169;-88
2023/06/26 17:03:07;;;;;;;3.63;3.10;;;26.40;99.90;;;;;;1931029;73;25752;-86
2023/06/26 17:05:56;;;;;;;3.50;3.20;;;26.20;99.90;;;;;;1922054;73;26765;-86
2023/06/26 17:08:45;;;;;;;3.10;2.80;;;26.30;99.90;;;;;;1925711;73;26197;-86
2023/06/26 17:11:33;;;;;;;10.70;3.43;;;26.40;99.90;;;;;;1937859;73;26311;-86
2023/06/26 17:14:21;;;;;;;4.27;3.13;;;26.10;99.90;;;;;;1925638;73;25386;-86
2023/06/26 17:17:10;;;;;;;4.07;3.27;;;25.90;99.90;;;;;;1930622;73;26203;-85
2023/06/26 17:19:58;;;;;;;3.90;3.10;;;25.80;99.90;;;;;;1926526;73;26796;-86
2023/06/26 17:22:47;;;;;;;3.30;2.93;;;25.80;99.90;;;;;;1940261;73;26791;-87
2023/06/26 17:25:36;;;;;;;8.33;3.50;;;25.50;99.90;;;;;;1925504;73;26300;-86
2023/06/26 17:28:25;;;;;;;4.27;3.60;;;25.50;99.90;;;;;;1938842;73;25232;-85
2023/06/26 17:34:00;;;;;;;4.17;3.40;;;25.40;99.90;;;;;;1950975;72;26855;-85
2023/06/26 17:36:48;;;;;;;6.00;3.30;;;25.40;99.90;;;;;;1862236;75;26910;-87
2023/06/26 17:39:37;;;;;;;3.70;3.30;;;25.30;99.90;;;;;;1891976;75;26266;-87
2023/06/26 17:42:25;;;;;;;4.57;3.83;;;25.20;99.90;;;;;;1896215;75;25241;-85
2023/06/26 17:45:15;;;;;;;7.13;3.67;;;25.10;99.90;;;;;;1885706;75;25286;-86
2023/06/26 17:48:03;;;;;;;6.00;4.07;;;24.80;99.90;;;;;;1896124;75;25166;-87
2023/06/26 17:50:53;;;;;;;7.50;4.00;;;23.90;99.90;;;;;;1897315;75;25164;-87
2023/06/26 17:53:42;;;;;;;4.77;3.50;;;23.40;99.90;;;;;;1882270;75;25178;-87
2023/06/26 17:56:30;;;;;;;6.77;4.00;;;23.10;99.90;;;;;;1890948;75;25223;-86
2023/06/26 17:59:20;;;;;;;7.93;4.00;;;23.00;99.90;;;;;;1882048;75;25208;-86
2023/06/26 18:02:10;;;;;;;5.27;3.90;;;23.00;99.90;;;;;;1889303;75;25391;-86
2023/06/26 18:04:59;;;;;;;4.90;4.13;;;23.00;99.90;;;;;;1881046;75;25604;-86
2023/06/26 18:07:48;;;;;;;6.30;3.63;;;23.00;99.90;;;;;;1888979;75;25158;-86
2023/06/26 18:10:37;;;;;;;4.90;3.20;;;22.90;99.90;;;;;;1889677;75;25343;-86
2023/06/26 18:13:25;;;;;;;8.00;3.37;;;22.50;99.90;;;;;;1889983;75;25271;-87
2023/06/26 18:18:53;;;;;;;9.13;4.20;;;22.00;99.90;;;;;;1940270;72;27074;-87
2023/06/26 18:21:42;;;;;;;6.97;3.70;;;21.80;99.90;;;;;;1906230;75;25236;-87
2023/06/26 18:24:31;;;;;;;5.03;4.03;;;21.70;99.90;;;;;;1911830;75;25204;-88
2023/06/26 18:27:20;;;;;;;5.10;4.03;;;21.60;99.90;;;;;;1894825;75;25651;-87
2023/06/26 18:45:56;;;;;;;14.00;9.50;;;21.30;99.90;;;;;;1936990;72;27032;-87
2023/06/26 18:48:46;;;;;;;14.20;8.30;;;21.30;99.90;;;;;;1903365;74;25204;-87
2023/06/26 18:51:35;;;;;;;8.27;5.13;;;21.20;99.90;;;;;;1873414;76;25269;-87
2023/06/26 18:54:24;;;;;;;6.90;4.33;;;21.00;99.90;;;;;;1845623;77;25205;-87
2023/06/26 18:57:13;;;;;;;4.93;4.10;;;20.90;99.90;;;;;;1876505;76;25279;-87
2023/06/26 19:00:02;;;;;;;9.20;4.73;;;20.70;99.90;;;;;;1900538;74;25219;-87
2023/06/26 19:02:50;;;;;;;6.20;4.70;;;20.70;99.90;;;;;;1901560;74;25733;-87
2023/06/26 19:05:39;;;;;;;7.07;4.70;;;20.40;99.90;;;;;;1873028;75;25295;-87
2023/06/26 19:08:28;;;;;;;6.17;4.20;;;20.20;99.90;;;;;;1909509;74;25777;-87
2023/06/26 19:11:17;;;;;;;5.97;4.50;;;20.00;99.90;;;;;;1873218;76;25307;-87
2023/06/26 19:14:07;;;;;;;7.07;4.60;;;20.00;99.90;;;;;;1837983;76;25351;-88
2023/06/26 19:19:36;;;;;;;8.17;4.60;;;19.90;99.90;;;;;;1936348;72;27061;-87
2023/06/26 19:22:27;;;;;;;5.77;4.47;;;19.90;99.90;;;;;;1894354;75;25830;-87
2023/06/26 19:25:15;;;;;;;7.60;4.90;;;19.90;99.90;;;;;;1892518;75;25254;-87
2023/06/26 19:28:04;;;;;;;11.97;5.37;;;19.80;99.90;;;;;;1896993;75;25231;-87
2023/06/26 19:33:33;;;;;;;9.37;5.23;;;19.70;99.90;;;;;;1935397;73;27102;-87
2023/06/26 19:39:05;;;;;;;5.60;4.60;;;19.70;99.90;;;;;;1947432;72;27011;-87
2023/06/26 19:41:54;;;;;;;6.93;4.80;;;19.80;99.90;;;;;;1929995;73;25249;-87
2023/06/26 19:44:43;;;;;;;8.20;4.90;;;19.70;99.90;;;;;;1923458;73;25245;-87
2023/06/26 19:47:33;;;;;;;5.37;4.20;;;19.60;99.90;;;;;;1932619;73;25256;-87
2023/06/26 19:50:22;;;;;;;6.07;4.30;;;19.60;99.90;;;;;;1916844;73;25268;-87
2023/06/26 19:53:10;;;;;;;5.27;4.33;;;19.70;99.90;;;;;;1919697;73;25236;-87
2023/06/26 19:55:58;;;;;;;6.17;4.40;;;19.80;99.90;;;;;;1922565;73;25319;-87
2023/06/26 20:01:28;;;;;;;7.43;4.40;;;19.80;99.90;;;;;;1948018;72;27032;-87
2023/06/26 20:07:01;;;;;;;8.97;4.33;;;19.80;99.90;;;;;;1920616;74;27067;-87
2023/06/26 20:09:47;;;;;;;6.53;5.00;;;19.80;99.90;;;;;;1878712;76;25303;-87
2023/06/26 20:12:36;;;;;;;9.57;7.50;;;19.80;99.90;;;;;;1876773;76;25766;-87
2023/06/26 20:18:06;;;;;;;8.73;6.03;;;19.70;99.90;;;;;;2025599;69;27051;-87
2023/06/26 20:20:55;;;;;;;8.87;6.10;;;19.60;99.90;;;;;;2019133;71;26493;-87
2023/06/26 20:23:45;;;;;;;10.30;5.63;;;19.60;99.90;;;;;;1997921;70;25235;-87
2023/06/26 20:26:34;;;;;;;7.27;5.00;;;19.60;99.90;;;;;;2012121;70;25807;-87
2023/06/26 20:32:04;;;;;;;7.97;5.07;;;19.40;99.90;;;;;;1923265;72;27535;-87
2023/06/26 20:34:53;;;;;;;8.40;5.20;;;19.40;99.90;;;;;;1897428;73;25253;-88
2023/06/26 20:37:42;;;;;;;7.40;5.03;;;19.50;99.90;;;;;;1901210;73;25278;-88
2023/06/26 20:40:32;;;;;;;7.53;4.87;;;19.40;99.90;;;;;;1906965;73;25300;-87
2023/06/26 20:46:04;;;;;;;6.57;4.97;;;19.40;99.90;;;;;;1896708;74;27039;-87
2023/06/26 20:51:38;;;;;;;8.17;5.80;;;19.30;99.90;;;;;;1923527;72;27544;-87
2023/06/26 20:57:09;;;;;;;8.70;5.87;;;19.30;99.90;;;;;;1940528;72;27082;-87
2023/06/26 20:59:58;;;;;;;9.77;6.33;;;19.40;99.90;;;;;;1910167;73;25641;-86
2023/06/26 21:02:47;;;;;;;9.87;7.20;;;19.40;99.90;;;;;;1918050;73;25249;-87
2023/06/26 21:05:35;;;;;;;12.83;7.17;;;19.40;99.90;;;;;;1915706;73;25220;-87
2023/06/26 21:11:06;;;;;;;10.60;7.23;;;19.30;99.90;;;;;;1927484;72;27068;-86
2023/06/26 21:13:54;;;;;;;11.63;7.00;;;19.40;99.90;;;;;;1908960;73;25237;-87
2023/06/26 21:16:43;;;;;;;10.27;7.03;;;19.40;99.90;;;;;;1910484;73;25406;-87
2023/06/26 21:19:31;;;;;;;9.20;6.03;;;19.50;99.90;;;;;;1907550;73;25274;-87
2023/06/26 21:25:08;;;;;;;9.87;6.27;;;19.60;99.90;;;;;;1935609;72;27653;-86
2023/06/26 21:27:57;;;;;;;11.40;6.57;;;19.70;99.90;;;;;;1901825;74;25691;-86
2023/06/26 21:30:46;;;;;;;10.00;6.37;;;19.80;99.90;;;;;;1901686;75;25272;-84
2023/06/26 21:36:19;;;;;;;11.10;6.30;;;19.70;99.90;;;;;;1928982;72;27097;-87
2023/06/26 21:39:08;;;;;;;7.37;5.87;;;19.70;99.90;;;;;;1866650;75;25781;-88
2023/06/26 21:44:35;;;;;;;8.13;5.90;;;19.70;99.90;;;;;;1935111;73;27088;-87
2023/06/26 21:47:24;;;;;;;6.70;5.23;;;19.50;99.90;;;;;;1917251;74;25292;-88
2023/06/26 21:52:54;;;;;;;8.67;6.37;;;19.30;99.90;;;;;;1940355;72;27635;-87
2023/06/26 21:55:43;;;;;;;9.27;5.90;;;19.30;99.90;;;;;;1892699;75;25766;-88
2023/06/26 22:01:14;;;;;;;9.60;6.37;;;19.30;99.90;;;;;;1921227;72;27015;-87
2023/06/26 22:04:03;;;;;;;9.93;6.40;;;19.50;99.90;;;;;;1909926;73;25269;-87
2023/06/26 22:06:51;;;;;;;11.97;7.17;;;19.60;99.90;;;;;;1915050;74;26027;-86
2023/06/26 22:09:40;;;;;;;11.10;6.83;;;19.50;99.90;;;;;;1904814;74;25287;-87
2023/06/26 22:15:11;;;;;;;10.93;6.40;;;19.50;99.90;;;;;;1938144;72;27020;-87
2023/06/26 22:18:01;;;;;;;10.23;6.10;;;19.50;99.90;;;;;;1905685;75;25156;-87
2023/06/26 22:20:49;;;;;;;8.00;5.60;;;19.50;99.90;;;;;;1896927;75;25290;-87
2023/06/26 22:26:20;;;;;;;7.93;5.17;;;19.50;99.90;;;;;;1917204;72;27179;-87
2023/06/26 22:29:09;;;;;;;7.10;5.70;;;19.30;99.90;;;;;;1900180;74;26776;-87
2023/06/26 22:34:38;;;;;;;8.30;5.57;;;19.10;99.90;;;;;;1927262;72;27587;-90
2023/06/26 22:37:26;;;;;;;7.73;5.27;;;19.10;99.90;;;;;;1909768;73;25270;-87
2023/06/26 22:40:15;;;;;;;9.30;5.43;;;19.20;99.90;;;;;;1861159;75;25298;-87
2023/06/26 22:45:44;;;;;;;5.40;4.63;;;19.30;99.90;;;;;;1944341;72;27096;-87
2023/06/26 22:51:17;;;;;;;7.97;4.87;;;19.30;99.90;;;;;;1926946;72;27511;-86
2023/06/26 22:54:06;;;;;;;5.63;4.90;;;19.10;99.90;;;;;;1898109;73;26134;-87
2023/06/26 22:56:54;;;;;;;6.27;4.80;;;19.10;99.90;;;;;;1899081;73;25696;-86
2023/06/26 22:59:43;;;;;;;6.80;4.33;;;19.20;99.90;;;;;;1895258;73;25734;-86
2023/06/26 23:02:32;;;;;;;6.80;4.47;;;19.20;99.90;;;;;;1901523;73;25708;-86
2023/06/26 23:05:20;;;;;;;6.27;4.57;;;19.20;99.90;;;;;;1902291;73;25680;-86
2023/06/26 23:08:08;;;;;;;5.70;4.70;;;19.00;99.90;;;;;;1906634;73;25772;-86
2023/06/26 23:13:37;;;;;;;12.00;4.90;;;18.80;99.90;;;;;;1934460;72;26955;-87
2023/06/26 23:16:25;;;;;;;6.37;4.57;;;18.80;99.90;;;;;;1906424;73;25798;-87
2023/06/26 23:19:14;;;;;;;5.53;4.63;;;18.80;99.90;;;;;;1909524;73;25801;-87
2023/06/26 23:24:42;;;;;;;9.87;4.57;;;18.90;99.90;;;;;;1925157;72;27089;-87
2023/06/26 23:27:31;;;;;;;8.67;5.33;;;19.00;99.90;;;;;;1900075;73;25865;-87
2023/06/26 23:33:05;;;;;;;7.37;5.23;;;18.90;99.90;;;;;;1941568;72;27075;-87
2023/06/26 23:35:53;;;;;;;8.13;5.30;;;18.80;99.90;;;;;;1898774;75;25258;-87
2023/06/26 23:38:42;;;;;;;6.17;4.97;;;18.80;99.90;;;;;;1892448;75;25169;-87
2023/06/26 23:41:32;;;;;;;8.10;4.67;;;18.70;99.90;;;;;;1889287;75;25389;-87
2023/06/26 23:47:03;;;;;;;7.80;4.70;;;18.80;99.90;;;;;;1921156;72;27034;-88
2023/06/26 23:52:31;;;;;;;6.83;4.73;;;18.80;99.90;;;;;;1929950;72;27182;-88
2023/06/26 23:55:20;;;;;;;6.23;5.23;;;18.70;99.90;;;;;;1900834;73;25309;-88
2023/06/26 23:58:08;;;;;;;7.47;4.40;;;18.60;99.90;;;;;;1907533;73;25895;-87
